Date,TemperatureHighF,TemperatureAvgF,TemperatureLowF,DewpointHighF,DewpointAvgF,DewpointLowF,HumidityHigh,HumidityAvg,HumidityLow,PressureMaxIn,PressureMinIn,WindSpeedMaxMPH,WindSpeedAvgMPH,GustSpeedMaxMPH,PrecipitationSumIn
2013-4-1,46,36,27,43,29,19,95,77,50,29.14,28.74,19,9,22,0.03
2013-4-2,36,30,26,29,21,18,87,71,50,29.31,29.14,17,10,25,0.00
2013-4-3,38,31,26,23,20,16,74,62,43,29.58,29.31,16,9,21,0.00
2013-4-4,54,39,27,27,22,18,81,54,28,29.56,29.09,7,3,14,0.00
2013-4-5,46,38,30,33,25,18,79,60,44,29.36,29.06,13,7,19,0.00
2013-4-6,46,35,26,28,23,19,83,63,38,29.51,29.20,11,4,16,0.00
2013-4-7,68,54,40,48,36,25,77,52,38,29.21,28.84,19,11,31,0.00
2013-4-8,57,45,40,42,36,34,81,72,55,29.29,29.09,12,3,18,0.00
2013-4-11,39,33,31,37,31,28,97,90,72,29.33,29.14,12,2,18,0.06
2013-4-12,52,40,34,51,38,31,98,94,86,29.14,28.69,16,7,24,0.06
2013-4-13,45,42,40,40,37,35,95,84,71,29.00,28.94,8,4,18,0.03
2013-4-18,80,73,67,62,60,59,76,65,54,28.95,28.81,23,18,33,0.02
2013-4-19,74,59,42,60,50,32,86,71,61,28.90,28.50,26,10,43,0.02
2013-4-20,43,38,32,34,29,24,91,69,57,29.61,28.90,17,9,25,0.02
2013-4-21,43,36,29,30,24,15,82,64,45,29.88,29.61,11,3,16,0.22
2013-4-22,59,46,34,36,28,16,67,49,32,29.79,29.50,18,10,24,0.00
2013-4-23,65,53,41,41,35,29,68,53,37,29.49,29.08,18,9,18,0.00
2013-4-24,65,54,38,58,46,36,95,76,55,29.18,28.72,16,8,20,0.33
2013-4-25,58,46,36,41,36,32,95,73,39,29.48,29.18,13,3,21,0.05
2013-4-26,53,43,38,42,36,30,95,78,48,29.64,29.49,10,2,12,0.00
2013-4-27,63,51,41,44,36,31,73,59,45,29.60,29.38,11,6,15,0.00
2013-4-28,73,60,51,52,43,38,85,56,29,29.38,29.16,21,11,25,0.08
2013-4-29,65,58,50,56,51,47,90,78,69,29.19,29.11,19,8,24,0.07
2013-4-30,73,63,56,59,55,52,88,74,55,29.36,29.19,18,7,23,0.00